Flight Track Log - Related Links

Times and Time Zones

All times are in EST time to prevent confusion due to time zone crossing. See the FIN666 flight status page for this flight to view local times or setup timezone preferences in your user account.

Time Position Orientation Groundspeed Altitude Reporting Facility
EST Latitude Longitude Course Direction KTS MPH feet Rate Location/Type
Thu 07:26:00 AM 55.8272 13.0881 49° Northeast  Level Estimated
Thu 07:27:00 AM 55.8966 13.2332 49° Northeast  Level Estimated
Thu 07:28:00 AM 55.9658 13.3788 50° Northeast  Level Estimated
Thu 07:29:00 AM 56.0443 13.5449 50° Northeast  Level Estimated
Thu 07:30:00 AM 56.1225 13.7116 50° Northeast  Level Estimated
Thu 07:31:00 AM 56.2005 13.8791 50° Northeast  Level Estimated
Thu 07:32:00 AM 56.2783 14.0472 50° Northeast  Level Estimated
Thu 07:33:00 AM 56.3559 14.2160 50° Northeast  Level Estimated
Thu 07:34:00 AM 56.4332 14.3855 50° Northeast  Level Estimated
Thu 07:35:00 AM 56.5103 14.5557 51° Northeast  Level Estimated
Thu 07:36:00 AM 56.5872 14.7266 51° Northeast  Level Estimated
Thu 07:37:00 AM 56.6638 14.8981 51° Northeast  Level Estimated
Thu 07:38:00 AM 56.7402 15.0704 51° Northeast  Level Estimated
Thu 07:39:00 AM 56.8164 15.2434 51° Northeast  Level Estimated
Thu 07:40:00 AM 56.8923 15.4171 51° Northeast  Level Estimated
Thu 07:41:00 AM 56.9680 15.5914 51° Northeast  Level Estimated
Thu 07:42:00 AM 57.0434 15.7665 52° Northeast  Level Estimated
Thu 07:43:00 AM 57.1175 15.9397 52° Northeast  Level Estimated
Thu 07:44:00 AM 57.1913 16.1136 52° Northeast  Level Estimated
Thu 07:45:00 AM 57.2649 16.2881 52° Northeast  Level Estimated
Thu 07:46:00 AM 57.3382 16.4634 52° Northeast  Level Estimated
Thu 07:47:00 AM 57.4113 16.6393 52° Northeast  Level Estimated
Thu 07:48:00 AM 57.4842 16.8160 52° Northeast  Level Estimated
Thu 07:49:00 AM 57.5568 16.9934 53° Northeast  Level Estimated
Thu 07:50:00 AM 57.6291 17.1714 53° Northeast  Level Estimated
Thu 07:51:00 AM 57.7012 17.3502 53° Northeast  Level Estimated
Thu 07:52:00 AM 57.7731 17.5297 53° Northeast  Level Estimated
Thu 07:53:00 AM 57.8447 17.7099 53° Northeast  Level Estimated
Thu 07:54:00 AM 57.9160 17.8908 53° Northeast  Level Estimated
Thu 07:55:00 AM 57.9871 18.0725 54° Northeast  Level Estimated
Thu 07:56:00 AM 58.0579 18.2548 54° Northeast  Level Estimated
Thu 07:57:00 AM 58.1284 18.4379 54° Northeast  Level Estimated
Thu 07:58:00 AM 58.1987 18.6217 54° Northeast  Level Estimated
Thu 07:59:00 AM 58.2688 18.8063 54° Northeast  Level Estimated
Thu 08:00:00 AM 58.3385 18.9916 54° Northeast  Level Estimated
Thu 08:01:00 AM 58.4080 19.1775 54° Northeast  Level Estimated
Thu 08:02:00 AM 58.4772 19.3643 55° Northeast  Level Estimated
Thu 08:03:00 AM 58.5462 19.5518 55° Northeast  Level Estimated
Thu 08:04:00 AM 58.6149 19.7400 55° Northeast  Level Estimated
Thu 08:05:00 AM 58.6833 19.9289 55° Northeast  Level Estimated
Thu 08:06:00 AM 58.7514 20.1186 55° Northeast  Level Estimated
Thu 08:07:00 AM 58.8192 20.3090 55° Northeast  Level Estimated
Thu 08:08:00 AM 58.8868 20.5002 56° Northeast  Level Estimated
Thu 08:09:00 AM 58.9541 20.6921 56° Northeast  Level Estimated
Thu 08:10:00 AM 59.0211 20.8848 56° Northeast  Level Estimated
Thu 08:11:00 AM 59.0878 21.0782 56° Northeast  Level Estimated
Thu 08:12:00 AM 59.1552 21.2754 56° Northeast  Level Estimated
Thu 08:13:00 AM 59.2223 21.4732 56° Northeast  Level Estimated
Thu 08:14:00 AM 59.2891 21.6719 57° Northeast  Level Estimated
Thu 08:15:00 AM 59.3557 21.8714 57° Northeast  Level Estimated
Thu 08:16:00 AM 59.4219 22.0716 57° Northeast  Level Estimated
Thu 08:17:00 AM 59.4878 22.2726 57° Northeast  Level Estimated
Thu 08:18:00 AM 59.5534 22.4745 57° Northeast  Level Estimated
Thu 08:19:00 AM 59.6186 22.6770 57° Northeast  Level Estimated
Thu 08:20:00 AM 59.6836 22.8804 58° Northeast  Level Estimated
Thu 08:21:00 AM 59.7483 23.0846 58° Northeast  Level Estimated
Thu 08:22:00 AM 59.8081 23.2751 58° Northeast  Level Estimated
Thu 08:23:00 AM 59.8676 23.4663 58° Northeast  Level Estimated
Thu 08:24:00 AM 59.9269 23.6581 58° Northeast  Level Estimated
Thu 08:25:00 AM 59.9859 23.8507 58° Northeast  Level Estimated
Thu 08:26:00 AM 60.0446 24.0439 59° Northeast  Level Estimated
Thu 08:27:00 AM 60.1030 24.2379 59° Northeast  Level Estimated
Thu 08:28:00 AM 60.1611 24.4325 59° Northeast  Level Estimated
Thu 08:29:00 AM 60.2190 24.6278 59° Northeast  Level Estimated
Thu 08:30:00 AM 60.2765 24.8238 59° Northeast  Level Estimated
Thu 08:31:00 AM 60.3172 24.9633 59° Northeast  Level Estimated
Thu 08:32:00 AM 60.3172 24.9633 37° Northeast  Level Estimated
Thu 08:33:00 AM 60.3172 24.9633 37° Northeast  Level Estimated
Thu 08:34:00 AM 60.3172 24.9633 37° Northeast  Level Estimated
Thu 08:35:00 AM 60.3172 24.9633 37° Northeast  Level Estimated
Thu 08:36:00 AM 60.3172 24.9633 37° Northeast  Level Estimated
Thu 08:37:00 AM 60.3172 24.9633 37° Northeast  Level Estimated
Thu 08:38:00 AM 60.3172 24.9633 37° Northeast  Level Estimated
Thu 08:39:00 AM 60.3172 24.9633 37° Northeast  Level Estimated
Thu 08:40:00 AM 60.3172 24.9633 37° Northeast  Level Estimated
Thu 08:41:00 AM 60.3172 24.9633 37° Northeast  Level Estimated
Thu 08:42:00 AM 60.3172 24.9633 37° Northeast  Level Estimated
Thu 08:43:00 AM 60.3172 24.9633 37° Northeast  Level Estimated
Thu 08:44:00 AM 60.3172 24.9633 37° Northeast  Level Estimated
Thu 08:45:00 AM 60.3172 24.9633 37° Northeast  Level Estimated
Thu 08:46:00 AM 60.3172 24.9633 37° Northeast  Level Estimated
Thu 08:47:00 AM 60.3172 24.9633 37° Northeast  Level Estimated
Thu 08:48:00 AM 60.3172 24.9633 37° Northeast  Level Estimated

Login

Don't have an account? Register now (free) for customized features, flight alerts, and more!